createdAt,value
2023-04-01T00:01:06.802Z,99.90
2023-04-01T00:03:34.374Z,99.90
2023-04-01T00:06:01.913Z,99.90
2023-04-01T00:08:29.132Z,99.90
2023-04-01T00:10:56.518Z,99.90
2023-04-01T00:13:23.268Z,99.90
2023-04-01T00:15:50.626Z,99.90
2023-04-01T00:18:17.343Z,99.90
2023-04-01T00:20:51.419Z,99.90
2023-04-01T00:23:19.119Z,99.90
2023-04-01T00:25:48.677Z,99.90
2023-04-01T00:28:17.564Z,99.90
2023-04-01T00:30:44.295Z,99.90
2023-04-01T00:33:11.575Z,99.90
2023-04-01T00:35:38.590Z,99.90
2023-04-01T00:38:05.836Z,99.90
2023-04-01T00:40:37.103Z,99.90
2023-04-01T00:43:10.310Z,99.90
2023-04-01T00:45:40.335Z,99.90
2023-04-01T00:48:11.195Z,99.90
2023-04-01T00:50:40.528Z,99.90
2023-04-01T00:53:09.210Z,99.90
2023-04-01T00:55:40.172Z,99.90
2023-04-01T00:58:12.169Z,99.90
2023-04-01T01:00:39.458Z,99.90
2023-04-01T01:03:06.217Z,99.90
2023-04-01T01:05:58.287Z,99.90
2023-04-01T01:08:39.961Z,99.90
2023-04-01T01:11:12.616Z,99.90
2023-04-01T01:13:58.987Z,99.90
2023-04-01T01:16:27.882Z,99.90
2023-04-01T01:19:18.172Z,99.90
2023-04-01T01:22:04.744Z,99.90
2023-04-01T01:24:43.503Z,99.90
2023-04-01T01:27:12.738Z,99.90
2023-04-01T01:30:09.502Z,99.90
2023-04-01T01:33:07.048Z,99.90
2023-04-01T01:35:41.245Z,99.90
2023-04-01T01:38:14.385Z,99.90
2023-04-01T01:40:45.906Z,99.90
2023-04-01T01:43:16.958Z,99.90
2023-04-01T01:45:50.696Z,99.90
2023-04-01T01:48:18.298Z,99.90
2023-04-01T01:50:46.870Z,99.90
2023-04-01T01:53:15.210Z,99.90
2023-04-01T01:55:47.681Z,99.90
2023-04-01T01:58:35.747Z,99.90
2023-04-01T02:01:06.671Z,99.90
2023-04-01T02:03:37.838Z,99.90
2023-04-01T02:06:12.033Z,99.90
2023-04-01T02:08:41.828Z,99.90
2023-04-01T02:11:12.924Z,99.90
2023-04-01T02:13:58.037Z,99.90
2023-04-01T02:16:27.773Z,99.90
2023-04-01T02:18:57.052Z,99.90
2023-04-01T02:21:26.401Z,99.90
2023-04-01T02:23:55.951Z,99.90
2023-04-01T02:26:24.221Z,99.90
2023-04-01T02:28:53.540Z,99.90
2023-04-01T02:31:20.798Z,99.90
2023-04-01T02:33:48.415Z,99.90
2023-04-01T02:36:16.837Z,99.90
2023-04-01T02:38:45.584Z,99.90
2023-04-01T02:41:13.322Z,99.90
2023-04-01T02:43:40.140Z,99.90
2023-04-01T02:46:06.873Z,99.90
2023-04-01T02:48:33.514Z,99.90
2023-04-01T02:51:00.288Z,99.90
2023-04-01T02:53:26.988Z,99.90
2023-04-01T02:55:53.701Z,99.90
2023-04-01T02:58:20.387Z,99.90
2023-04-01T03:00:47.226Z,99.90
2023-04-01T03:03:14.604Z,99.90
2023-04-01T03:05:41.407Z,99.90
2023-04-01T03:08:08.102Z,99.90
2023-04-01T03:10:34.715Z,99.90
2023-04-01T03:13:01.421Z,99.90
2023-04-01T03:15:28.042Z,99.90
2023-04-01T03:17:54.754Z,99.90
2023-04-01T03:20:21.559Z,99.90
2023-04-01T03:22:48.266Z,99.90
2023-04-01T03:25:14.935Z,99.90
2023-04-01T03:27:41.682Z,99.50
2023-04-01T03:30:09.238Z,99.80
2023-04-01T03:32:35.987Z,99.40
2023-04-01T03:35:02.728Z,99.70
2023-04-01T03:37:29.390Z,99.80
2023-04-01T03:39:56.248Z,99.50
2023-04-01T03:42:22.846Z,99.50
2023-04-01T03:44:49.458Z,99.50
2023-04-01T03:47:16.167Z,99.60
2023-04-01T03:49:42.782Z,99.40
2023-04-01T03:52:11.785Z,99.20
2023-04-01T03:54:38.674Z,99.20
2023-04-01T03:57:05.585Z,99.70
2023-04-01T03:59:32.377Z,98.90
2023-04-01T04:01:59.165Z,99.00
2023-04-01T04:04:26.941Z,99.10
2023-04-01T04:06:53.687Z,99.00
2023-04-01T04:09:20.338Z,98.90
2023-04-01T04:11:47.022Z,98.60
2023-04-01T04:14:13.714Z,98.60
2023-04-01T04:16:40.542Z,98.20
2023-04-01T04:19:07.326Z,98.30
2023-04-01T04:21:34.025Z,98.60
2023-04-01T04:24:01.367Z,98.50
2023-04-01T04:26:28.409Z,98.60
2023-04-01T04:28:56.056Z,98.50
2023-04-01T04:31:24.668Z,98.80
2023-04-01T04:33:52.378Z,99.10
2023-04-01T04:36:20.532Z,99.00
2023-04-01T04:38:47.468Z,99.10
2023-04-01T04:41:15.951Z,99.40
2023-04-01T04:43:43.246Z,99.50
2023-04-01T04:46:11.438Z,99.80
2023-04-01T04:48:38.312Z,99.50
2023-04-01T04:51:04.990Z,99.60
2023-04-01T04:53:31.639Z,99.70
2023-04-01T04:55:58.340Z,99.70
2023-04-01T04:58:25.033Z,99.90
2023-04-01T05:00:51.642Z,99.90
2023-04-01T05:03:18.417Z,99.90
2023-04-01T05:05:53.962Z,99.90
2023-04-01T05:08:21.060Z,99.90
2023-04-01T05:10:47.768Z,99.90
2023-04-01T05:13:14.390Z,99.90
2023-04-01T05:15:41.341Z,99.90
2023-04-01T05:18:08.198Z,99.90
2023-04-01T05:20:34.877Z,99.90
2023-04-01T05:23:01.896Z,99.80
2023-04-01T05:25:28.843Z,99.90
2023-04-01T05:27:55.845Z,99.90
2023-04-01T05:30:22.541Z,99.60
2023-04-01T05:32:49.288Z,99.90
2023-04-01T05:35:16.065Z,99.90
2023-04-01T05:37:42.751Z,99.70
2023-04-01T05:40:10.186Z,99.60
2023-04-01T05:42:38.307Z,99.50
2023-04-01T05:45:06.091Z,99.90
2023-04-01T05:47:32.916Z,99.70
2023-04-01T05:50:00.021Z,99.90
2023-04-01T05:52:26.692Z,99.90
2023-04-01T05:54:53.423Z,99.90
2023-04-01T05:57:20.374Z,99.90
2023-04-01T05:59:47.031Z,99.90
2023-04-01T06:02:14.240Z,99.90
2023-04-01T06:04:41.920Z,99.90
2023-04-01T06:07:17.068Z,99.90
2023-04-01T06:09:45.563Z,99.90
2023-04-01T06:12:30.050Z,99.90
2023-04-01T06:15:26.942Z,99.90
2023-04-01T06:18:30.845Z,99.90
2023-04-01T06:21:08.832Z,99.90
2023-04-01T06:23:38.540Z,99.90
2023-04-01T06:26:25.414Z,99.90
2023-04-01T06:29:24.875Z,99.90
2023-04-01T06:32:13.571Z,99.90
2023-04-01T06:35:16.928Z,99.90
2023-04-01T06:38:12.373Z,99.90
2023-04-01T06:40:44.855Z,99.90
2023-04-01T06:43:23.953Z,99.90
2023-04-01T06:46:20.459Z,99.90
2023-04-01T06:48:54.878Z,99.90
2023-04-01T06:51:40.192Z,99.90
2023-04-01T06:54:18.741Z,99.90
2023-04-01T06:56:48.125Z,99.90
2023-04-01T06:59:26.169Z,99.90
2023-04-01T07:02:11.150Z,99.90
2023-04-01T07:04:43.259Z,99.90
2023-04-01T07:07:21.040Z,99.90
2023-04-01T07:09:54.363Z,99.90
2023-04-01T07:12:32.581Z,99.90
2023-04-01T07:15:07.044Z,99.90
2023-04-01T07:17:36.932Z,99.90
2023-04-01T07:20:20.931Z,99.90
2023-04-01T07:22:52.348Z,99.90
2023-04-01T07:25:23.560Z,99.90
2023-04-01T07:27:53.198Z,99.90
2023-04-01T07:30:22.942Z,99.90
2023-04-01T07:33:14.458Z,99.90
2023-04-01T07:35:46.238Z,99.90
2023-04-01T07:38:31.552Z,99.90
2023-04-01T07:41:01.040Z,99.90
2023-04-01T07:43:42.005Z,99.90
2023-04-01T07:46:36.663Z,99.90
2023-04-01T07:49:27.089Z,99.90
2023-04-01T07:52:12.961Z,99.90
2023-04-01T07:54:45.392Z,99.90
2023-04-01T07:57:33.840Z,99.90
2023-04-01T08:00:05.529Z,99.90
2023-04-01T08:03:09.342Z,99.80
2023-04-01T08:05:47.331Z,99.90
2023-04-01T08:08:13.916Z,99.90
2023-04-01T08:10:55.569Z,99.90
2023-04-01T08:13:51.927Z,99.90
2023-04-01T08:16:21.972Z,99.90
2023-04-01T08:19:23.408Z,99.90
2023-04-01T08:21:55.597Z,97.90
2023-04-01T08:24:56.322Z,98.60
2023-04-01T08:27:32.584Z,99.00
2023-04-01T08:30:00.904Z,99.30
2023-04-01T08:32:39.700Z,97.20
2023-04-01T08:35:21.881Z,97.10
2023-04-01T08:37:51.279Z,95.80
2023-04-01T08:40:36.771Z,95.90
2023-04-01T08:43:10.039Z,95.30
2023-04-01T08:45:57.687Z,94.30
2023-04-01T08:48:49.493Z,93.50
2023-04-01T08:51:34.531Z,95.00
2023-04-01T08:54:10.063Z,95.10
2023-04-01T08:56:40.740Z,96.00
2023-04-01T08:59:26.175Z,96.00
2023-04-01T09:02:28.752Z,96.10
2023-04-01T09:05:37.858Z,96.90
2023-04-01T09:08:18.370Z,94.60
2023-04-01T09:11:08.676Z,93.90
2023-04-01T09:13:59.792Z,94.10
2023-04-01T09:16:48.495Z,95.10
2023-04-01T09:19:24.129Z,93.70
2023-04-01T09:22:18.042Z,93.30
2023-04-01T09:25:22.930Z,93.20
2023-04-01T09:27:57.543Z,93.70
2023-04-01T09:30:46.025Z,93.30
2023-04-01T09:33:53.405Z,93.10
2023-04-01T09:36:20.120Z,94.60
2023-04-01T09:38:49.828Z,95.00
2023-04-01T09:41:31.671Z,95.10
2023-04-01T09:44:05.569Z,94.80
2023-04-01T09:46:59.201Z,94.70
2023-04-01T09:49:55.608Z,93.70
2023-04-01T09:52:45.369Z,94.90
2023-04-01T09:55:46.717Z,95.40
2023-04-01T09:58:49.238Z,95.90
2023-04-01T10:01:59.186Z,96.20
2023-04-01T10:05:01.321Z,96.10
2023-04-01T10:07:40.122Z,97.20
2023-04-01T10:10:40.611Z,97.50
2023-04-01T10:13:25.797Z,97.00
2023-04-01T10:16:04.211Z,96.30
2023-04-01T10:18:39.619Z,96.60
2023-04-01T10:21:19.775Z,97.20
2023-04-01T10:23:46.356Z,96.20
2023-04-01T10:26:50.219Z,95.20
2023-04-01T10:29:39.958Z,94.80
2023-04-01T10:32:06.664Z,95.10
2023-04-01T10:34:56.638Z,96.00
2023-04-01T10:37:36.846Z,96.50
2023-04-01T10:40:09.700Z,97.10
2023-04-01T10:42:48.521Z,96.50
2023-04-01T10:45:44.277Z,97.10
2023-04-01T10:48:48.874Z,96.90
2023-04-01T10:51:53.334Z,96.60
2023-04-01T10:54:38.786Z,97.60
2023-04-01T10:57:40.622Z,97.80
2023-04-01T11:00:16.284Z,98.50
2023-04-01T11:03:01.924Z,99.50
2023-04-01T11:05:56.556Z,99.40
2023-04-01T11:09:11.548Z,99.10
2023-04-01T11:12:05.922Z,99.90
2023-04-01T11:14:51.481Z,99.90
2023-04-01T11:17:46.823Z,99.90
2023-04-01T11:21:01.829Z,99.90
2023-04-01T11:23:58.300Z,99.90
2023-04-01T11:26:56.911Z,95.70
2023-04-01T11:29:58.831Z,95.40
2023-04-01T11:32:44.740Z,95.30
2023-04-01T11:35:49.599Z,94.40
2023-04-01T11:38:33.777Z,94.30
2023-04-01T11:41:23.003Z,94.20
2023-04-01T11:44:16.161Z,95.00
2023-04-01T11:47:06.284Z,95.30
2023-04-01T11:50:09.961Z,96.50
2023-04-01T11:52:42.131Z,97.30
2023-04-01T11:55:51.839Z,98.00
2023-04-01T11:58:52.886Z,98.70
2023-04-01T12:01:46.659Z,99.30
2023-04-01T12:04:55.753Z,99.50
2023-04-01T12:07:26.228Z,99.30
2023-04-01T12:10:06.849Z,98.90
2023-04-01T12:13:12.659Z,98.80
2023-04-01T12:15:42.755Z,99.90
2023-04-01T12:18:37.194Z,99.90
2023-04-01T12:21:16.531Z,99.40
2023-04-01T12:23:49.607Z,99.00
2023-04-01T12:26:51.894Z,99.60
2023-04-01T12:29:36.686Z,99.90
2023-04-01T12:32:36.325Z,99.90
2023-04-01T12:35:11.634Z,99.90
2023-04-01T12:37:59.559Z,99.60
2023-04-01T12:40:47.675Z,98.00
2023-04-01T12:43:39.293Z,98.10
2023-04-01T12:46:33.809Z,99.60
2023-04-01T12:49:06.420Z,99.70
2023-04-01T12:51:57.416Z,99.70
2023-04-01T12:54:43.121Z,99.10
2023-04-01T12:57:21.973Z,98.90
2023-04-01T12:59:55.458Z,99.80
2023-04-01T13:02:54.165Z,99.90
2023-04-01T13:05:42.199Z,99.10
2023-04-01T13:08:17.027Z,99.40
2023-04-01T13:11:11.016Z,99.90
2023-04-01T13:14:07.500Z,99.90
2023-04-01T13:16:49.278Z,99.90
2023-04-01T13:19:21.823Z,99.90
2023-04-01T13:22:01.218Z,99.90
2023-04-01T13:24:37.588Z,99.30
2023-04-01T13:27:10.479Z,99.60
2023-04-01T13:29:58.801Z,99.90
2023-04-01T13:32:43.219Z,99.90
2023-04-01T13:35:27.265Z,97.80
2023-04-01T13:38:12.531Z,98.10
2023-04-01T13:40:49.276Z,98.10
2023-04-01T13:43:46.800Z,97.90
2023-04-01T13:46:34.922Z,98.50
2023-04-01T13:49:24.391Z,98.00
2023-04-01T13:52:01.664Z,97.50
2023-04-01T13:54:43.541Z,98.20
2023-04-01T13:57:31.600Z,99.60
2023-04-01T14:00:20.565Z,98.70
2023-04-01T14:02:59.384Z,98.70
2023-04-01T14:05:45.390Z,99.10
2023-04-01T14:08:45.673Z,99.50
2023-04-01T14:11:28.392Z,99.70
2023-04-01T14:14:01.518Z,99.90
2023-04-01T14:16:50.965Z,98.90
2023-04-01T14:19:36.126Z,99.10
2023-04-01T14:22:41.161Z,99.90
2023-04-01T14:25:24.486Z,99.90
2023-04-01T14:28:10.035Z,98.80
2023-04-01T14:30:44.741Z,98.20
2023-04-01T14:33:26.333Z,98.70
2023-04-01T14:36:29.787Z,99.10
2023-04-01T14:39:15.902Z,99.30
2023-04-01T14:42:21.021Z,98.30
2023-04-01T14:45:23.989Z,99.00
2023-04-01T14:48:28.126Z,99.10
2023-04-01T14:50:58.468Z,98.90
2023-04-01T14:53:30.471Z,99.50
2023-04-01T14:56:00.032Z,98.70
2023-04-01T14:58:47.738Z,99.20
2023-04-01T15:01:48.385Z,99.00
2023-04-01T15:05:00.196Z,99.60
2023-04-01T15:07:45.472Z,99.90
2023-04-01T15:10:33.955Z,99.90
2023-04-01T15:13:17.205Z,99.80
2023-04-01T15:16:02.760Z,99.90
2023-04-01T15:18:45.960Z,99.90
2023-04-01T15:21:31.466Z,99.30
2023-04-01T15:24:17.005Z,98.20
2023-04-01T15:27:05.773Z,99.60
2023-04-01T15:29:52.053Z,99.90
2023-04-01T15:32:24.880Z,99.90
2023-04-01T15:35:20.968Z,99.90
2023-04-01T15:37:58.416Z,99.90
2023-04-01T15:40:33.992Z,99.90
2023-04-01T15:43:27.251Z,99.90
2023-04-01T15:46:14.163Z,99.90
2023-04-01T15:49:00.514Z,99.90
2023-04-01T15:51:52.159Z,99.90
2023-04-01T15:54:50.213Z,99.90
2023-04-01T15:57:44.413Z,99.90
2023-04-01T16:00:56.624Z,99.90
2023-04-01T16:58:58.443Z,98.60
2023-04-01T17:05:16.477Z,98.60
2023-04-01T17:11:30.297Z,98.50
2023-04-01T17:14:52.448Z,98.50
2023-04-01T17:17:50.169Z,98.50
2023-04-01T17:20:51.148Z,98.60
2023-04-01T17:23:49.104Z,98.60
2023-04-01T17:26:47.960Z,98.60
2023-04-01T17:29:32.403Z,98.60
2023-04-01T17:32:39.656Z,98.60
2023-04-01T17:35:17.652Z,98.50
2023-04-01T17:37:56.371Z,98.50
2023-04-01T17:40:35.120Z,98.70
2023-04-01T17:43:04.994Z,98.80
2023-04-01T17:45:43.430Z,98.90
2023-04-01T17:48:35.701Z,99.10
2023-04-01T17:51:10.487Z,99.10
2023-04-01T17:53:52.496Z,99.20
2023-04-01T17:56:35.853Z,99.40
2023-04-01T17:59:24.176Z,99.60
2023-04-01T18:01:58.472Z,99.80
2023-04-01T18:04:49.415Z,99.90
2023-04-01T18:07:57.696Z,99.90
2023-04-01T18:10:42.505Z,99.90
2023-04-01T18:13:43.447Z,99.90
2023-04-01T18:16:21.756Z,99.90
2023-04-01T18:19:00.801Z,99.90
2023-04-01T18:21:38.117Z,99.90
2023-04-01T18:24:22.220Z,99.90
2023-04-01T18:27:01.878Z,99.90
2023-04-01T18:29:41.005Z,99.90
2023-04-01T18:32:24.835Z,99.90
2023-04-01T18:35:15.433Z,99.90
2023-04-01T18:38:07.471Z,99.90
2023-04-01T18:40:51.728Z,99.90
2023-04-01T18:43:40.507Z,99.90
2023-04-01T18:46:30.933Z,99.90
2023-04-01T18:49:12.979Z,99.90
2023-04-01T18:51:54.698Z,99.90
2023-04-01T18:54:31.259Z,99.90
2023-04-01T18:57:13.713Z,99.90
2023-04-01T18:59:54.203Z,99.90
2023-04-01T19:02:38.702Z,99.90
2023-04-01T19:05:32.913Z,99.90
2023-04-01T19:08:30.355Z,99.90
2023-04-01T19:11:00.018Z,99.90
2023-04-01T19:13:41.295Z,99.90
2023-04-01T19:16:41.175Z,99.90
2023-04-01T19:19:31.500Z,99.90
2023-04-01T19:22:32.647Z,99.90
2023-04-01T19:25:08.753Z,99.90
2023-04-01T19:28:02.729Z,99.90
2023-04-01T19:30:48.161Z,99.90
2023-04-01T19:33:42.414Z,99.90
2023-04-01T19:36:35.970Z,99.90
2023-04-01T19:39:12.270Z,99.90
2023-04-01T19:42:04.239Z,99.90
2023-04-01T19:44:58.635Z,99.90
2023-04-01T19:47:35.118Z,99.90
2023-04-01T19:50:21.976Z,99.90
2023-04-01T19:52:50.839Z,99.90
2023-04-01T19:55:59.706Z,99.90
2023-04-01T19:58:35.119Z,99.90
2023-04-01T20:01:04.590Z,99.90
2023-04-01T20:03:52.376Z,99.90
2023-04-01T20:06:37.945Z,99.90
2023-04-01T20:09:29.380Z,99.90
2023-04-01T20:12:19.689Z,99.90
2023-04-01T20:14:57.755Z,99.90
2023-04-01T20:17:43.326Z,99.90
2023-04-01T20:20:10.165Z,99.90
2023-04-01T20:23:08.102Z,99.90
2023-04-01T20:26:09.792Z,99.90
2023-04-01T20:29:08.720Z,99.90
2023-04-01T20:31:51.097Z,99.90
2023-04-01T20:34:41.244Z,99.90
2023-04-01T20:37:30.791Z,99.90
2023-04-01T20:40:03.218Z,99.90
2023-04-01T20:43:00.564Z,99.90
2023-04-01T20:45:33.612Z,99.90
2023-04-01T20:48:03.671Z,99.90
2023-04-01T20:50:42.585Z,99.90
2023-04-01T20:53:29.208Z,99.90
2023-04-01T20:56:18.682Z,99.90
2023-04-01T20:59:04.376Z,99.90
2023-04-01T21:02:03.150Z,99.90
2023-04-01T21:04:42.334Z,99.90
2023-04-01T21:07:12.654Z,99.90
2023-04-01T21:10:13.529Z,99.90
2023-04-01T21:13:10.989Z,99.90
2023-04-01T21:15:57.898Z,99.90
2023-04-01T21:18:58.950Z,99.90
2023-04-01T21:21:55.454Z,99.90
2023-04-01T21:24:53.204Z,99.90
2023-04-01T21:27:41.018Z,99.90
2023-04-01T21:30:37.260Z,99.90
2023-04-01T21:33:11.768Z,99.90
2023-04-01T21:35:54.842Z,99.90
2023-04-01T21:38:30.949Z,99.90
2023-04-01T21:41:27.278Z,99.90
2023-04-01T21:44:22.429Z,99.90
2023-04-01T21:47:18.402Z,99.90
2023-04-01T21:50:05.397Z,99.90
2023-04-01T21:52:38.115Z,99.90
2023-04-01T21:55:42.668Z,99.90
2023-04-01T21:58:29.137Z,99.90
2023-04-01T22:01:19.487Z,99.90
2023-04-01T22:04:14.686Z,99.90
2023-04-01T22:07:07.274Z,99.90
2023-04-01T22:10:12.375Z,99.90
2023-04-01T22:13:09.964Z,99.90
2023-04-01T22:16:04.535Z,99.90
2023-04-01T22:18:35.796Z,99.90
2023-04-01T22:21:36.474Z,99.90
2023-04-01T22:24:32.600Z,99.90
2023-04-01T22:27:40.399Z,99.90
2023-04-01T22:30:23.493Z,99.90
2023-04-01T22:33:09.379Z,99.90
2023-04-01T22:36:03.498Z,99.90
2023-04-01T22:38:58.715Z,99.90
2023-04-01T22:41:49.995Z,99.90
2023-04-01T22:44:37.286Z,99.90
2023-04-01T22:47:22.027Z,99.90
2023-04-01T22:50:07.313Z,99.90
2023-04-01T22:52:39.526Z,99.90
2023-04-01T22:55:15.173Z,99.90
2023-04-01T22:57:58.613Z,99.90
2023-04-01T23:00:45.838Z,99.90
2023-04-01T23:03:28.349Z,99.90
2023-04-01T23:05:58.260Z,99.90
2023-04-01T23:08:49.786Z,99.90
2023-04-01T23:11:21.960Z,99.90
2023-04-01T23:13:57.305Z,99.90
2023-04-01T23:16:54.308Z,99.90
2023-04-01T23:19:40.242Z,99.90
2023-04-01T23:22:26.252Z,99.90
2023-04-01T23:25:24.172Z,99.90
2023-04-01T23:28:34.426Z,99.90
2023-04-01T23:31:11.359Z,99.90
2023-04-01T23:54:30.748Z,99.90
2023-04-01T23:57:03.740Z,99.90
